Wakefield, United Kingdom
Current Conditions -  °F | °C
As of 2:20 PM on Friday 31 Oct 2014 (Local Time) from EGNM Reporting Station
Few Clouds Few Clouds  
Wind Chill: 63°   Ceiling: Unl
Heat Index: 63°   Visibility: 6mi
Dew Point: 55°   Wind: 12mph
Humidity: 77%   Direction: 160°SSE
Pressure: 29.85"   Gusts: NA
Location:  53.68°N, 1.5°W
Report Text: EGNM 311420Z 16010KT 9999 FEW030 17/13 Q1011
Loading
Personal Weather Stations






























Interactive Weather Map
Tropical Storm Tracking
New forecast layout! Learn more

10-Day Weather Forecast

Advertisements
Track Severe Weather on mobile